Time;durP1;ratioP1;P1;durP2;ratioP2;P2;SDS_P1;SDS_P2;PMS_P1;PMS_P2;Temp;Humidity;BMP_temperature;BMP_pressure;BME280_temperature;BME280_humidity;BME280_pressure;Samples;Min_cycle;Max_cycle;Signal;HPM_P1;HPM_P2
2022/11/19 00:01:25;;;;;;;0.75;0.75;;;0.20;99.90;;;;;;5019530;28;20053;-82
2022/11/19 00:03:50;;;;;;;0.60;0.60;;;0.20;99.90;;;;;;5001734;28;20033;-82
2022/11/19 00:06:19;;;;;;;0.80;0.80;;;0.10;99.90;;;;;;4990222;28;20383;-82
2022/11/19 00:08:45;;;;;;;0.88;0.88;;;0.10;99.90;;;;;;5004547;28;20052;-81
2022/11/19 00:14:13;;;;;;;0.60;0.60;;;0.00;99.90;;;;;;5018282;28;20049;-82
2022/11/19 00:16:41;;;;;;;0.70;0.70;;;-0.10;99.90;;;;;;4993836;28;20029;-81
2022/11/19 00:19:08;;;;;;;1.38;1.38;;;-0.10;99.90;;;;;;5037291;28;20041;-80
2022/11/19 00:21:35;;;;;;;0.70;0.70;;;-0.20;99.90;;;;;;4992064;28;20045;-80
2022/11/19 00:24:01;;;;;;;0.68;0.68;;;-0.20;99.90;;;;;;5037041;28;20054;-81
2022/11/19 00:26:26;;;;;;;0.55;0.55;;;-0.20;99.90;;;;;;4995364;28;20394;-81
2022/11/19 00:28:58;;;;;;;0.63;0.63;;;0.00;99.90;;;;;;4986876;28;20051;-82
2022/11/19 00:31:24;;;;;;;;;;;-0.30;99.90;;;;;;4983646;28;20083;-82
2022/11/19 00:33:52;;;;;;;0.70;0.70;;;-0.40;99.90;;;;;;4971348;28;20047;-82
2022/11/19 00:36:19;;;;;;;0.60;0.60;;;-0.40;99.90;;;;;;4992679;28;20065;-81
2022/11/19 00:38:44;;;;;;;;;;;-0.40;99.90;;;;;;4994529;28;20178;-82
2022/11/19 00:41:10;;;;;;;0.80;0.80;;;-0.50;99.90;;;;;;5001596;28;20383;-82
2022/11/19 00:43:45;;;;;;;0.77;0.77;;;-0.50;99.90;;;;;;4996761;28;20513;-82
2022/11/19 00:46:23;;;;;;;0.70;0.70;;;-0.50;99.90;;;;;;4963063;28;20103;-83
2022/11/19 00:48:51;;;;;;;0.80;0.80;;;-0.40;99.90;;;;;;4992479;28;20049;-83
2022/11/19 00:51:18;;;;;;;0.75;0.75;;;-0.60;99.90;;;;;;4989835;28;20049;-82
2022/11/19 00:53:44;;;;;;;0.70;0.70;;;-0.60;99.90;;;;;;4976223;28;20768;-82
2022/11/19 00:56:12;;;;;;;;;;;-0.60;99.90;;;;;;4990276;28;20886;-81
2022/11/19 00:58:39;;;;;;;0.70;0.70;;;-0.70;99.90;;;;;;4993121;28;19994;-81
2022/11/19 01:01:07;;;;;;;0.70;0.70;;;-0.70;99.90;;;;;;5015469;28;20084;-82
2022/11/19 01:03:33;;;;;;;0.70;0.70;;;-0.80;99.90;;;;;;4991400;28;20136;-82
2022/11/19 01:05:59;;;;;;;0.80;0.80;;;-0.80;99.90;;;;;;5019618;28;20056;-82
2022/11/19 01:08:25;;;;;;;0.90;0.90;;;-0.80;99.90;;;;;;5000870;28;20054;-83
2022/11/19 01:11:07;;;;;;;0.70;0.70;;;-0.80;99.90;;;;;;4984386;28;20037;-82
2022/11/19 01:13:37;;;;;;;0.75;0.75;;;-0.80;99.90;;;;;;4999120;28;20042;-83
2022/11/19 01:16:24;;;;;;;0.70;0.70;;;-0.80;99.90;;;;;;5011772;28;20056;-81
2022/11/19 01:18:50;;;;;;;0.93;0.93;;;-0.80;99.90;;;;;;4999012;28;20055;-81
2022/11/19 01:21:18;;;;;;;0.70;0.70;;;-0.80;99.90;;;;;;4994575;28;20041;-82
2022/11/19 01:23:47;;;;;;;0.70;0.70;;;-0.80;99.90;;;;;;5014633;28;20068;-81
2022/11/19 01:26:14;;;;;;;0.80;0.80;;;-0.80;99.90;;;;;;4987692;28;20454;-82
2022/11/19 01:28:40;;;;;;;0.77;0.77;;;-0.80;99.90;;;;;;5004004;28;20067;-81
2022/11/19 01:31:08;;;;;;;0.80;0.80;;;-0.70;99.90;;;;;;4986390;28;20045;-81
2022/11/19 01:33:34;;;;;;;0.70;0.70;;;-0.80;99.90;;;;;;4985952;28;20045;-82
2022/11/19 01:36:03;;;;;;;0.80;0.80;;;-0.70;99.90;;;;;;5010981;28;20120;-84
2022/11/19 01:38:29;;;;;;;0.60;0.60;;;-0.50;99.90;;;;;;5030613;28;20041;-83
2022/11/19 01:40:56;;;;;;;0.75;0.75;;;0.70;99.90;;;;;;5011017;28;20081;-83
2022/11/19 01:43:46;;;;;;;0.80;0.80;;;-0.70;99.90;;;;;;4989680;28;20077;-83
2022/11/19 01:46:14;;;;;;;1.00;1.00;;;-0.80;99.90;;;;;;5003170;28;20033;-82
2022/11/19 01:49:05;;;;;;;0.80;0.80;;;-0.80;99.90;;;;;;4998650;28;20057;-82
2022/11/19 01:51:55;;;;;;;0.70;0.70;;;-0.40;99.90;;;;;;5016927;28;20037;-82
2022/11/19 01:54:28;;;;;;;0.80;0.80;;;-0.80;99.90;;;;;;5018159;28;20057;-83
2022/11/19 01:56:59;;;;;;;0.80;0.80;;;-0.90;99.90;;;;;;5004474;28;20099;-82
2022/11/19 01:59:28;;;;;;;0.80;0.80;;;-0.90;99.90;;;;;;4998713;28;20045;-82
2022/11/19 02:01:54;;;;;;;0.80;0.80;;;-0.90;99.90;;;;;;4984518;28;20048;-82
2022/11/19 02:04:22;;;;;;;0.73;0.73;;;-1.00;99.90;;;;;;4988552;28;20049;-82
2022/11/19 02:06:51;;;;;;;0.80;0.80;;;-1.00;99.90;;;;;;4999341;28;20060;-82
2022/11/19 02:09:16;;;;;;;0.75;0.75;;;-1.00;99.90;;;;;;5006663;28;20041;-82
2022/11/19 02:12:01;;;;;;;0.90;0.90;;;-1.10;99.90;;;;;;4985363;28;20075;-82
2022/11/19 02:14:33;;;;;;;0.70;0.70;;;-1.10;99.90;;;;;;5003529;28;20049;-83
2022/11/19 02:17:24;;;;;;;0.70;0.70;;;-1.20;99.90;;;;;;5004563;28;20052;-82
2022/11/19 02:20:25;;;;;;;0.82;0.82;;;-1.30;99.90;;;;;;5002066;28;20499;-83
2022/11/19 02:23:28;;;;;;;1.02;1.02;;;-1.30;99.90;;;;;;5005455;28;20037;-82
2022/11/19 02:26:29;;;;;;;0.70;0.70;;;-1.30;99.90;;;;;;5004479;28;20034;-82
2022/11/19 02:29:27;;;;;;;0.93;0.90;;;-1.40;99.90;;;;;;5000651;28;20065;-82
2022/11/19 02:31:58;;;;;;;0.80;0.80;;;-1.50;99.90;;;;;;5020179;28;20136;-82
2022/11/19 02:34:39;;;;;;;1.00;1.00;;;-1.50;99.90;;;;;;5016948;28;20107;-83
2022/11/19 02:37:17;;;;;;;0.70;0.70;;;-1.60;99.90;;;;;;5001808;28;20462;-81
2022/11/19 02:40:07;;;;;;;0.80;0.80;;;-1.60;99.90;;;;;;4998975;28;20045;-81
2022/11/19 02:42:42;;;;;;;0.73;0.73;;;-1.60;99.90;;;;;;5019582;28;20055;-81
2022/11/19 02:45:31;;;;;;;1.48;1.10;;;-1.70;99.90;;;;;;5016209;28;21642;-81
2022/11/19 02:48:02;;;;;;;0.75;0.75;;;-1.80;99.90;;;;;;4987086;28;20053;-82
2022/11/19 02:50:42;;;;;;;0.70;0.70;;;-1.80;99.90;;;;;;5000669;28;20408;-81
2022/11/19 02:53:08;;;;;;;4.88;2.10;;;-1.80;99.90;;;;;;5016508;28;20072;-82
2022/11/19 02:55:37;;;;;;;0.90;0.90;;;-1.30;99.90;;;;;;5006359;28;20051;-83
2022/11/19 03:06:38;;;;;;;1.10;1.10;;;-2.00;99.90;;;;;;5002585;28;20550;-82
2022/11/19 03:09:09;;;;;;;0.82;0.82;;;-2.00;99.90;;;;;;4990834;28;20096;-83
2022/11/19 03:11:36;;;;;;;0.75;0.75;;;-2.00;99.90;;;;;;4969425;28;20408;-82
2022/11/19 03:17:16;;;;;;;0.80;0.80;;;-2.00;99.90;;;;;;4999075;28;20064;-81
2022/11/19 03:19:56;;;;;;;0.80;0.80;;;-2.00;99.90;;;;;;5018419;28;20049;-82
2022/11/19 03:22:38;;;;;;;0.90;0.90;;;-2.00;99.90;;;;;;4998644;28;20131;-82
2022/11/19 03:25:17;;;;;;;0.80;0.80;;;-2.00;99.90;;;;;;5015279;28;20038;-83
2022/11/19 03:27:54;;;;;;;0.70;0.70;;;-2.10;99.90;;;;;;5019080;28;20045;-84
2022/11/19 03:30:21;;;;;;;0.82;0.82;;;-2.10;99.90;;;;;;5005696;28;20089;-82
2022/11/19 03:32:53;;;;;;;0.90;0.90;;;-2.10;99.90;;;;;;4987899;28;20134;-82
2022/11/19 03:35:28;;;;;;;0.65;0.65;;;-2.20;99.90;;;;;;5006665;28;20052;-81
2022/11/19 03:38:00;;;;;;;0.90;0.90;;;-2.20;99.90;;;;;;4999870;28;21683;-82
2022/11/19 03:40:29;;;;;;;0.80;0.80;;;-2.30;99.90;;;;;;4997386;28;20060;-80
2022/11/19 03:42:56;;;;;;;0.90;0.90;;;-2.30;99.90;;;;;;4996987;28;20355;-81
2022/11/19 03:45:27;;;;;;;0.80;0.80;;;-2.30;99.90;;;;;;4996034;28;20091;-81
2022/11/19 03:47:54;;;;;;;0.80;0.80;;;-2.30;99.90;;;;;;4980757;28;20041;-82
2022/11/19 03:50:36;;;;;;;0.70;0.70;;;-2.30;99.90;;;;;;5000285;28;20045;-82
2022/11/19 03:53:02;;;;;;;0.80;0.80;;;-2.30;99.90;;;;;;5013993;28;20487;-82
2022/11/19 03:55:36;;;;;;;0.90;0.90;;;-2.40;99.90;;;;;;4980911;28;20116;-82
2022/11/19 03:58:08;;;;;;;0.88;0.88;;;-2.40;99.90;;;;;;5004216;28;22487;-82
2022/11/19 04:00:34;;;;;;;0.90;0.90;;;-2.20;99.90;;;;;;5017654;28;20049;-82
2022/11/19 04:03:00;;;;;;;0.80;0.80;;;-2.50;99.90;;;;;;4995735;28;20044;-84
2022/11/19 04:05:25;;;;;;;;;;;-2.50;99.90;;;;;;4988299;28;20041;-82
2022/11/19 04:07:57;;;;;;;0.80;0.80;;;-2.60;99.90;;;;;;5019831;28;19928;-81
2022/11/19 04:10:23;;;;;;;0.80;0.80;;;-2.60;99.90;;;;;;4981361;28;20041;-80
2022/11/19 04:12:48;;;;;;;0.90;0.90;;;-2.60;99.90;;;;;;5001551;28;20407;-80
2022/11/19 04:15:15;;;;;;;0.80;0.80;;;-2.60;99.90;;;;;;4982414;28;20044;-80
2022/11/19 04:17:41;;;;;;;0.60;0.60;;;-2.60;99.90;;;;;;5016084;28;20041;-80
2022/11/19 04:20:07;;;;;;;;;;;-2.60;99.90;;;;;;5014162;28;20050;-82
2022/11/19 04:22:33;;;;;;;0.70;0.70;;;-2.60;99.90;;;;;;4994938;28;19967;-80
2022/11/19 04:24:59;;;;;;;;;;;-2.70;99.90;;;;;;4983730;28;20148;-80
2022/11/19 04:27:24;;;;;;;0.80;0.80;;;-2.70;99.90;;;;;;4965009;28;19943;-82
2022/11/19 04:29:50;;;;;;;0.70;0.70;;;-2.70;99.90;;;;;;4988358;28;20395;-81
2022/11/19 04:32:16;;;;;;;0.80;0.80;;;-2.70;99.90;;;;;;4986367;28;20522;-82
2022/11/19 04:34:42;;;;;;;1.35;1.35;;;-2.80;99.90;;;;;;4996966;28;20045;-82
2022/11/19 04:37:07;;;;;;;;;;;-2.10;99.90;;;;;;4978369;28;20945;-82
2022/11/19 04:39:33;;;;;;;0.88;0.88;;;-2.80;99.90;;;;;;4999609;28;20008;-82
2022/11/19 04:41:59;;;;;;;0.93;0.93;;;-2.70;99.90;;;;;;4995436;28;20040;-82
2022/11/19 04:44:24;;;;;;;;;;;-2.80;99.90;;;;;;5000835;28;20060;-82
2022/11/19 04:46:50;;;;;;;0.90;0.90;;;-2.80;99.90;;;;;;5015824;28;20450;-81
2022/11/19 04:49:16;;;;;;;;;;;-2.80;99.90;;;;;;4996005;28;20056;-80
2022/11/19 04:51:43;;;;;;;0.80;0.80;;;-2.80;99.90;;;;;;4996948;28;19917;-80
2022/11/19 04:54:09;;;;;;;1.40;1.30;;;-2.70;99.90;;;;;;4994908;28;20118;-81
2022/11/19 04:56:35;;;;;;;;;;;-2.70;99.90;;;;;;5014462;28;20061;-81
2022/11/19 04:59:00;;;;;;;0.80;0.80;;;-2.80;99.90;;;;;;5001219;28;20020;-80
2022/11/19 05:01:26;;;;;;;0.90;0.90;;;-2.80;99.90;;;;;;4973098;28;20399;-80
2022/11/19 05:03:53;;;;;;;;;;;-2.80;99.90;;;;;;5006756;28;20099;-80
2022/11/19 05:06:19;;;;;;;0.90;0.90;;;-2.80;99.90;;;;;;4999938;28;19925;-80
2022/11/19 05:08:46;;;;;;;0.80;0.80;;;-2.80;99.90;;;;;;5008856;28;20088;-81
2022/11/19 05:11:13;;;;;;;0.90;0.90;;;-2.80;99.90;;;;;;5017048;28;20042;-80
2022/11/19 05:13:42;;;;;;;0.60;0.60;;;-2.80;99.90;;;;;;5037057;28;20049;-80
2022/11/19 05:16:07;;;;;;;;;;;-2.80;99.90;;;;;;5001266;28;21271;-81
2022/11/19 05:18:33;;;;;;;0.75;0.75;;;-2.40;99.90;;;;;;5003701;28;20007;-81
2022/11/19 05:20:59;;;;;;;;;;;-2.80;99.90;;;;;;5001867;28;20740;-80
2022/11/19 05:23:25;;;;;;;0.77;0.77;;;-2.90;99.90;;;;;;4999526;28;19955;-81
2022/11/19 05:25:56;;;;;;;0.70;0.70;;;-2.90;99.90;;;;;;5001881;28;20908;-81
2022/11/19 05:28:22;;;;;;;;;;;-2.90;99.90;;;;;;5005684;28;20034;-81
2022/11/19 05:30:48;;;;;;;0.70;0.70;;;-2.90;99.90;;;;;;4999746;28;19925;-81
2022/11/19 05:33:13;;;;;;;;;;;-2.90;99.90;;;;;;4955603;28;20088;-81
2022/11/19 05:35:39;;;;;;;0.70;0.70;;;-2.90;99.90;;;;;;5014006;28;19932;-81
2022/11/19 05:38:07;;;;;;;;;;;-2.60;99.90;;;;;;4999738;28;20076;-80
2022/11/19 05:40:32;;;;;;;0.90;0.90;;;-3.00;99.90;;;;;;5003709;28;19925;-81
2022/11/19 05:43:02;;;;;;;;;;;-3.00;99.90;;;;;;4981703;28;20044;-81
2022/11/19 05:45:28;;;;;;;0.80;0.80;;;-2.90;99.90;;;;;;4983090;28;19917;-82
2022/11/19 05:47:54;;;;;;;;;;;-2.90;99.90;;;;;;4987329;28;20068;-81
2022/11/19 05:50:20;;;;;;;0.80;0.80;;;-3.00;99.90;;;;;;4998800;28;20014;-80
2022/11/19 05:52:46;;;;;;;;;;;-3.00;99.90;;;;;;4986982;28;20487;-81
2022/11/19 05:55:11;;;;;;;0.80;0.80;;;-3.00;99.90;;;;;;4998586;28;21740;-80
2022/11/19 05:57:37;;;;;;;;;;;-3.00;99.90;;;;;;5018014;28;20049;-79
2022/11/19 06:00:04;;;;;;;0.60;0.60;;;-3.00;99.90;;;;;;4984194;28;20023;-80
2022/11/19 06:02:29;;;;;;;0.73;0.73;;;-3.00;99.90;;;;;;4986255;28;20052;-80
2022/11/19 06:04:55;;;;;;;;;;;-3.00;99.90;;;;;;4995884;28;20045;-81
2022/11/19 06:07:21;;;;;;;0.90;0.90;;;-2.70;99.90;;;;;;4984395;28;19917;-81
2022/11/19 06:09:46;;;;;;;;;;;-3.00;99.90;;;;;;5016245;28;20095;-80
2022/11/19 06:12:12;;;;;;;0.60;0.60;;;-3.00;99.90;;;;;;4987134;28;19931;-81
2022/11/19 06:14:38;;;;;;;;;;;-3.00;99.90;;;;;;5001735;28;21440;-78
2022/11/19 06:17:03;;;;;;;0.90;0.90;;;-3.00;99.90;;;;;;4978389;28;21179;-80
2022/11/19 06:19:29;;;;;;;0.75;0.75;;;-3.10;99.90;;;;;;5014472;28;20033;-80
2022/11/19 06:21:55;;;;;;;0.80;0.80;;;-3.10;99.90;;;;;;4985273;28;20489;-80
2022/11/19 06:24:21;;;;;;;1.00;1.00;;;-3.10;99.90;;;;;;4997888;28;20494;-80
2022/11/19 06:26:46;;;;;;;;;;;-3.10;99.90;;;;;;4985351;28;20037;-79
2022/11/19 06:29:13;;;;;;;0.90;0.90;;;-3.20;99.90;;;;;;4985349;28;20019;-80
2022/11/19 06:31:39;;;;;;;0.80;0.80;;;-3.20;99.90;;;;;;5002660;28;20050;-81
2022/11/19 06:34:06;;;;;;;0.80;0.80;;;-3.10;99.90;;;;;;5002677;28;20088;-80
2022/11/19 06:36:32;;;;;;;0.70;0.70;;;-3.30;99.90;;;;;;5024642;28;20052;-80
2022/11/19 06:38:57;;;;;;;;;;;-3.20;99.90;;;;;;4990384;28;20046;-82
2022/11/19 06:41:23;;;;;;;0.80;0.80;;;-3.30;99.90;;;;;;5006780;28;20450;-80
2022/11/19 06:43:48;;;;;;;;;;;-3.30;99.90;;;;;;5006519;28;20045;-79
2022/11/19 06:46:14;;;;;;;0.90;0.90;;;-3.30;99.90;;;;;;5002131;28;20312;-80
2022/11/19 06:48:40;;;;;;;1.00;1.00;;;-3.30;99.90;;;;;;5005078;28;20052;-78
2022/11/19 06:51:06;;;;;;;;;;;-3.30;99.90;;;;;;5002625;28;20085;-81
2022/11/19 06:53:33;;;;;;;0.88;0.88;;;-3.20;99.90;;;;;;4985096;28;19917;-79
2022/11/19 06:56:03;;;;;;;1.00;1.00;;;-3.30;99.90;;;;;;4969225;28;20057;-80
2022/11/19 06:58:29;;;;;;;0.80;0.80;;;-3.30;99.90;;;;;;5001570;28;20847;-81
2022/11/19 07:00:56;;;;;;;0.80;0.80;;;-3.20;99.90;;;;;;4999452;28;20061;-80
2022/11/19 07:03:23;;;;;;;0.70;0.70;;;-3.30;99.90;;;;;;5013945;28;20038;-80
2022/11/19 07:05:53;;;;;;;0.70;0.70;;;-3.30;99.90;;;;;;4998519;28;20507;-79
2022/11/19 07:08:19;;;;;;;0.90;0.90;;;-3.30;99.90;;;;;;5020005;28;20037;-80
2022/11/19 07:10:44;;;;;;;;;;;-3.30;99.90;;;;;;4988389;28;20087;-80
2022/11/19 07:13:10;;;;;;;0.70;0.70;;;-3.40;99.90;;;;;;5013110;28;19925;-81
2022/11/19 07:15:35;;;;;;;;;;;-3.30;99.90;;;;;;4999489;28;20150;-79
2022/11/19 07:18:01;;;;;;;0.80;0.80;;;-3.30;99.90;;;;;;4997171;28;19952;-80
2022/11/19 07:20:27;;;;;;;;;;;-3.30;99.90;;;;;;5016667;28;20047;-79
2022/11/19 07:22:53;;;;;;;0.90;0.90;;;-3.30;99.90;;;;;;4999211;28;19920;-79
2022/11/19 07:25:19;;;;;;;0.90;0.90;;;-3.30;99.90;;;;;;5013763;28;20041;-80
2022/11/19 07:27:46;;;;;;;0.80;0.80;;;-2.90;99.90;;;;;;5001353;28;20049;-79
2022/11/19 07:30:13;;;;;;;0.75;0.75;;;-3.20;99.90;;;;;;4982409;28;20056;-80
2022/11/19 07:32:39;;;;;;;0.90;0.90;;;-3.20;99.90;;;;;;5000704;28;20041;-77
2022/11/19 07:35:05;;;;;;;0.90;0.90;;;-3.20;99.90;;;;;;4993643;28;20041;-79
2022/11/19 07:37:31;;;;;;;0.80;0.80;;;-3.20;99.90;;;;;;4994462;28;20511;-80
2022/11/19 07:39:56;;;;;;;;;;;-3.20;99.90;;;;;;4982383;28;21204;-78
2022/11/19 07:45:08;;;;;;;0.70;0.70;;;-3.10;99.90;;;;;;5013216;28;20064;-80
2022/11/19 07:47:34;;;;;;;0.70;0.70;;;-3.10;99.90;;;;;;4979101;28;20056;-81
2022/11/19 07:50:00;;;;;;;;;;;-3.10;99.90;;;;;;5014513;28;20507;-80
2022/11/19 07:52:26;;;;;;;0.60;0.60;;;-2.70;99.90;;;;;;5010812;28;19921;-82
2022/11/19 07:54:51;;;;;;;;;;;-3.00;99.90;;;;;;4966953;28;20403;-80
2022/11/19 07:57:21;;;;;;;0.65;0.65;;;-3.00;99.90;;;;;;5013280;28;20012;-79
2022/11/19 07:59:47;;;;;;;0.63;0.63;;;-2.70;99.90;;;;;;4995808;28;20053;-80
2022/11/19 08:02:13;;;;;;;;;;;-2.90;99.90;;;;;;4996029;28;20048;-78
2022/11/19 08:04:39;;;;;;;0.90;0.90;;;-2.90;99.90;;;;;;5000195;28;19925;-79
2022/11/19 08:07:05;;;;;;;;;;;-2.80;99.90;;;;;;4998762;28;20041;-80
2022/11/19 08:09:31;;;;;;;0.80;0.80;;;-2.80;99.90;;;;;;4978996;28;19931;-80
2022/11/19 08:11:56;;;;;;;;;;;-2.80;99.90;;;;;;5000454;28;20045;-80
2022/11/19 08:14:22;;;;;;;0.80;0.80;;;-2.80;99.90;;;;;;4996217;28;19968;-81
2022/11/19 08:19:32;;;;;;;0.65;0.65;;;-2.70;99.90;;;;;;4997577;28;19929;-77
2022/11/19 08:21:58;;;;;;;;;;;-2.60;99.90;;;;;;4968753;28;20033;-78
2022/11/19 08:24:23;;;;;;;0.80;0.80;;;-2.60;99.90;;;;;;4997426;28;19931;-79
2022/11/19 08:26:49;;;;;;;;;;;-2.50;99.90;;;;;;4995271;28;20048;-79
2022/11/19 08:29:17;;;;;;;0.80;0.80;;;-2.50;99.90;;;;;;4996134;28;19932;-79
2022/11/19 08:31:45;;;;;;;0.70;0.70;;;-2.40;99.90;;;;;;4995902;28;20053;-79
2022/11/19 08:34:11;;;;;;;0.80;0.80;;;-1.90;99.90;;;;;;4996475;28;20041;-78
2022/11/19 08:36:37;;;;;;;0.88;0.88;;;-2.20;99.90;;;;;;5013665;28;20095;-81
2022/11/19 08:39:03;;;;;;;0.80;0.80;;;-2.20;99.90;;;;;;4982912;28;20183;-83
2022/11/19 08:44:13;;;;;;;0.70;0.70;;;-2.10;99.90;;;;;;5000352;28;20355;-80
2022/11/19 08:46:39;;;;;;;0.80;0.80;;;-2.00;99.90;;;;;;5006292;28;20132;-79
2022/11/19 08:49:08;;;;;;;0.70;0.70;;;-2.00;99.90;;;;;;5014876;28;20044;-82
2022/11/19 08:51:34;;;;;;;;;;;-2.00;99.90;;;;;;4999988;28;20396;-78
2022/11/19 08:53:59;;;;;;;0.80;0.80;;;-1.80;99.90;;;;;;5000430;28;19921;-80
2022/11/19 08:56:25;;;;;;;;;;;-1.80;99.90;;;;;;5013624;28;20067;-78
2022/11/19 08:58:53;;;;;;;0.80;0.80;;;-1.80;99.90;;;;;;4982181;28;20371;-80
2022/11/19 09:01:19;;;;;;;0.90;0.90;;;-1.70;99.90;;;;;;5011205;28;21960;-78
2022/11/19 09:03:44;;;;;;;0.70;0.70;;;-1.70;99.90;;;;;;4996768;28;20034;-76
2022/11/19 09:06:10;;;;;;;;;;;-1.60;99.90;;;;;;5002377;28;20056;-77
2022/11/19 09:08:38;;;;;;;0.80;0.80;;;-1.60;99.90;;;;;;5002200;28;19959;-77
2022/11/19 09:11:16;;;;;;;0.90;0.90;;;-1.50;99.90;;;;;;4997459;28;20045;-78
2022/11/19 09:13:42;;;;;;;0.80;0.80;;;-1.40;99.90;;;;;;5016549;28;20045;-79
2022/11/19 09:16:09;;;;;;;0.75;0.75;;;-1.40;99.90;;;;;;5011840;28;20050;-79
2022/11/19 09:18:38;;;;;;;0.80;0.80;;;-1.20;99.90;;;;;;4997170;28;20083;-79
2022/11/19 09:21:06;;;;;;;0.90;0.90;;;-1.30;99.90;;;;;;5004733;28;20048;-77
2022/11/19 09:23:35;;;;;;;0.75;0.75;;;-1.20;99.90;;;;;;5016373;28;20053;-77
2022/11/19 09:26:02;;;;;;;;;;;-1.20;99.90;;;;;;4998955;28;20045;-77
2022/11/19 09:28:31;;;;;;;0.80;0.80;;;-1.10;99.90;;;;;;5001700;28;20008;-79
2022/11/19 09:31:05;;;;;;;0.70;0.70;;;-1.10;99.90;;;;;;5025163;28;20483;-78
2022/11/19 09:33:34;;;;;;;0.70;0.70;;;-1.00;99.90;;;;;;5016218;28;20045;-78
2022/11/19 09:36:00;;;;;;;0.80;0.80;;;-1.00;99.90;;;;;;5012933;28;20053;-78
2022/11/19 09:38:26;;;;;;;0.73;0.73;;;-0.90;99.90;;;;;;5014379;28;20058;-79
2022/11/19 09:40:55;;;;;;;0.80;0.80;;;-0.90;99.90;;;;;;4985995;28;20052;-79
2022/11/19 09:43:59;;;;;;;0.70;0.70;;;-0.80;99.90;;;;;;5002445;28;20037;-80
2022/11/19 09:46:48;;;;;;;0.63;0.63;;;-0.80;99.90;;;;;;4999564;28;20128;-79
2022/11/19 09:49:26;;;;;;;0.70;0.70;;;-0.70;99.90;;;;;;5007372;28;20041;-81
2022/11/19 09:52:00;;;;;;;0.80;0.80;;;-0.70;99.90;;;;;;5006508;28;20041;-82
2022/11/19 09:54:26;;;;;;;0.52;0.52;;;-0.60;99.90;;;;;;4990515;28;20112;-80
2022/11/19 09:56:54;;;;;;;0.75;0.75;;;-0.60;99.90;;;;;;4992407;28;20041;-80
2022/11/19 09:59:37;;;;;;;0.80;0.80;;;-0.50;99.90;;;;;;5004812;28;20079;-82
2022/11/19 10:02:18;;;;;;;0.60;0.60;;;-0.50;99.90;;;;;;5009318;28;20067;-82
2022/11/19 10:04:46;;;;;;;0.85;0.85;;;-0.40;99.90;;;;;;4990039;28;20033;-80
2022/11/19 10:07:49;;;;;;;0.80;0.80;;;-0.30;99.90;;;;;;5009637;28;20049;-81
2022/11/19 10:10:55;;;;;;;0.50;0.50;;;-0.30;99.90;;;;;;5009583;28;21060;-82
2022/11/19 10:13:39;;;;;;;0.55;0.55;;;-0.20;99.90;;;;;;5009881;28;20049;-85
2022/11/19 10:16:13;;;;;;;0.55;0.55;;;-0.10;99.90;;;;;;5011847;28;20483;-84
2022/11/19 10:18:59;;;;;;;0.50;0.50;;;0.00;99.90;;;;;;5019601;28;20060;-80
2022/11/19 10:21:46;;;;;;;0.60;0.60;;;0.00;99.90;;;;;;5040595;28;20045;-78
2022/11/19 10:24:17;;;;;;;;;;;0.00;99.90;;;;;;5022788;28;20045;-80
2022/11/19 10:26:56;;;;;;;0.70;0.70;;;0.10;99.90;;;;;;5028523;28;19921;-81
2022/11/19 10:29:32;;;;;;;0.88;0.88;;;0.20;99.90;;;;;;5012474;28;20517;-84
2022/11/19 10:32:35;;;;;;;0.80;0.80;;;0.20;99.90;;;;;;5032225;28;20052;-80
2022/11/19 10:35:16;;;;;;;0.90;0.90;;;0.30;99.90;;;;;;5034424;28;20037;-81
2022/11/19 10:37:47;;;;;;;;;;;0.30;99.90;;;;;;5020876;28;20054;-79
2022/11/19 10:40:19;;;;;;;0.73;0.73;;;0.40;99.90;;;;;;5023669;28;19921;-81
2022/11/19 10:42:54;;;;;;;0.80;0.80;;;0.40;99.90;;;;;;5028432;28;20045;-83
2022/11/19 10:45:24;;;;;;;0.70;0.70;;;0.50;99.90;;;;;;5026929;28;20045;-82
2022/11/19 10:48:08;;;;;;;0.70;0.70;;;0.50;99.90;;;;;;4995625;28;20083;-86
2022/11/19 10:50:35;;;;;;;0.70;0.70;;;0.60;99.90;;;;;;5013396;28;20037;-84
2022/11/19 10:53:28;;;;;;;0.70;0.70;;;0.70;99.90;;;;;;5029909;28;20041;-81
2022/11/19 10:56:00;;;;;;;0.80;0.80;;;0.60;99.90;;;;;;5030868;28;20061;-83
2022/11/19 10:58:41;;;;;;;0.77;0.77;;;0.70;99.90;;;;;;5012777;28;20054;-84
2022/11/19 11:01:19;;;;;;;0.90;0.90;;;0.80;99.90;;;;;;5010978;28;20501;-82
2022/11/19 11:03:52;;;;;;;0.80;0.80;;;0.80;99.90;;;;;;5027652;28;20056;-84
2022/11/19 11:06:17;;;;;;;0.85;0.85;;;0.90;99.90;;;;;;5000213;28;20487;-83
2022/11/19 11:09:01;;;;;;;0.80;0.80;;;1.70;99.90;;;;;;4998091;28;20083;-81
2022/11/19 11:17:23;;;;;;;0.77;0.77;;;1.20;99.90;;;;;;5029549;28;20045;-82
2022/11/19 11:20:00;;;;;;;0.80;0.80;;;1.10;99.90;;;;;;5028812;28;20052;-81
2022/11/19 11:22:28;;;;;;;0.70;0.70;;;1.40;99.90;;;;;;5010058;28;20054;-83
2022/11/19 11:24:54;;;;;;;0.70;0.70;;;1.20;99.90;;;;;;5011332;28;20073;-80
2022/11/19 11:27:29;;;;;;;0.90;0.90;;;1.30;99.90;;;;;;5026408;28;20041;-81
2022/11/19 11:30:10;;;;;;;0.70;0.70;;;1.50;99.90;;;;;;5023589;28;20041;-82
2022/11/19 11:32:38;;;;;;;0.80;0.80;;;1.40;99.90;;;;;;5007682;28;20487;-80
2022/11/19 11:35:05;;;;;;;0.75;0.75;;;1.40;99.90;;;;;;4990334;28;20133;-80
2022/11/19 11:37:32;;;;;;;0.70;0.70;;;1.40;99.90;;;;;;4989959;28;20045;-84
2022/11/19 11:39:59;;;;;;;0.70;0.70;;;1.40;99.90;;;;;;4973473;28;20125;-84
2022/11/19 11:42:25;;;;;;;;;;;1.50;99.90;;;;;;4981202;28;20080;-84
2022/11/19 11:44:56;;;;;;;0.60;0.60;;;1.60;99.90;;;;;;4995838;28;19925;-83
2022/11/19 11:47:27;;;;;;;0.85;0.85;;;1.60;99.90;;;;;;4997753;28;20096;-85
2022/11/19 11:50:18;;;;;;;0.80;0.80;;;1.50;99.90;;;;;;5006727;28;20044;-82
2022/11/19 11:52:50;;;;;;;0.73;0.73;;;1.70;99.90;;;;;;5013539;28;20033;-81
2022/11/19 11:55:22;;;;;;;0.70;0.70;;;2.00;99.90;;;;;;4991066;28;20054;-82
2022/11/19 11:57:55;;;;;;;1.00;1.00;;;1.70;99.90;;;;;;4983349;28;20566;-82
2022/11/19 12:00:33;;;;;;;0.60;0.60;;;1.90;99.90;;;;;;4983301;28;20066;-82
2022/11/19 12:03:09;;;;;;;0.80;0.80;;;1.70;99.90;;;;;;5003714;28;20042;-83
2022/11/19 12:05:48;;;;;;;0.80;0.80;;;1.70;99.90;;;;;;4989739;28;20062;-81
2022/11/19 12:08:36;;;;;;;0.70;0.70;;;1.80;99.90;;;;;;4986291;28;20456;-84
2022/11/19 12:11:14;;;;;;;0.68;0.68;;;1.90;99.90;;;;;;4991403;28;21566;-82
2022/11/19 12:14:08;;;;;;;0.70;0.70;;;1.90;99.90;;;;;;4978290;28;20097;-84
2022/11/19 12:16:55;;;;;;;0.80;0.80;;;2.00;99.90;;;;;;4999351;28;20046;-82
2022/11/19 12:19:47;;;;;;;;;;;2.00;99.90;;;;;;5003425;28;20106;-80
2022/11/19 12:22:19;;;;;;;0.70;0.70;;;2.00;99.90;;;;;;5015049;28;19929;-84
2022/11/19 12:25:06;;;;;;;0.70;0.70;;;2.00;99.90;;;;;;4977552;28;20129;-83
2022/11/19 12:27:35;;;;;;;;;;;2.00;99.90;;;;;;4994427;28;20042;-84
2022/11/19 12:30:20;;;;;;;0.80;0.80;;;2.00;99.90;;;;;;4990750;28;19922;-83
2022/11/19 12:33:19;;;;;;;0.80;0.80;;;2.10;99.90;;;;;;5005357;28;20050;-84
2022/11/19 12:36:03;;;;;;;0.80;0.80;;;2.10;99.90;;;;;;4972412;28;20057;-81
2022/11/19 12:38:53;;;;;;;0.73;0.73;;;2.10;99.90;;;;;;4998142;28;20554;-81
2022/11/19 12:41:36;;;;;;;0.73;0.73;;;2.20;99.90;;;;;;4987865;28;20046;-84
2022/11/19 12:44:15;;;;;;;0.70;0.70;;;2.20;99.90;;;;;;4991265;28;20112;-83
2022/11/19 12:46:56;;;;;;;0.70;0.70;;;2.50;99.90;;;;;;4991823;28;20117;-82
2022/11/19 12:49:40;;;;;;;0.80;0.80;;;2.20;99.90;;;;;;4995570;28;20042;-80
2022/11/19 12:52:31;;;;;;;0.60;0.60;;;2.20;99.90;;;;;;4994796;28;20119;-81
2022/11/19 12:55:21;;;;;;;0.65;0.65;;;2.20;99.90;;;;;;5004340;28;20164;-81
2022/11/19 12:58:18;;;;;;;0.70;0.70;;;2.30;99.90;;;;;;5022367;28;20076;-83
2022/11/19 13:00:56;;;;;;;0.70;0.70;;;2.30;99.90;;;;;;5013373;28;20048;-82
2022/11/19 13:03:44;;;;;;;0.70;0.70;;;2.40;99.90;;;;;;5006944;28;20052;-82
2022/11/19 13:06:25;;;;;;;0.77;0.77;;;2.40;99.90;;;;;;5007191;28;20045;-84
2022/11/19 13:08:56;;;;;;;0.82;0.82;;;2.50;99.90;;;;;;5014063;28;20034;-82
2022/11/19 13:11:45;;;;;;;0.75;0.75;;;2.50;99.90;;;;;;5025166;28;20048;-81
2022/11/19 13:14:31;;;;;;;0.80;0.80;;;2.40;99.90;;;;;;5025534;28;20045;-80
2022/11/19 13:17:00;;;;;;;0.70;0.70;;;2.30;99.90;;;;;;5029758;28;20041;-80
2022/11/19 13:19:32;;;;;;;0.77;0.77;;;2.30;99.90;;;;;;5026176;28;20088;-80
2022/11/19 13:22:19;;;;;;;0.77;0.77;;;2.20;99.90;;;;;;5021406;28;20533;-85
2022/11/19 13:24:52;;;;;;;0.80;0.80;;;2.10;99.90;;;;;;5022303;28;20582;-81
2022/11/19 13:27:22;;;;;;;0.60;0.60;;;2.10;99.90;;;;;;5022427;28;20045;-83
2022/11/19 13:30:05;;;;;;;0.80;0.80;;;2.00;99.90;;;;;;5008619;28;20095;-82
2022/11/19 13:32:57;;;;;;;0.75;0.75;;;2.00;99.90;;;;;;5003054;28;20045;-83
2022/11/19 13:35:35;;;;;;;0.70;0.70;;;1.80;99.90;;;;;;5025602;28;20498;-87
2022/11/19 13:38:22;;;;;;;0.70;0.70;;;1.80;99.90;;;;;;5005423;28;20049;-82
2022/11/19 13:41:12;;;;;;;0.70;0.70;;;1.80;99.90;;;;;;5022841;28;20048;-83
2022/11/19 13:46:50;;;;;;;0.80;0.80;;;2.60;99.90;;;;;;5021370;28;20037;-83
2022/11/19 13:49:23;;;;;;;0.70;0.70;;;1.70;99.90;;;;;;5014145;28;21494;-82
2022/11/19 13:51:58;;;;;;;1.15;1.13;;;1.70;99.90;;;;;;5004714;28;20041;-83
2022/11/19 13:54:33;;;;;;;0.80;0.80;;;1.70;99.90;;;;;;5005238;28;20064;-81
2022/11/19 13:57:00;;;;;;;0.70;0.70;;;1.80;99.90;;;;;;5006813;28;20057;-83
2022/11/19 13:59:58;;;;;;;0.80;0.80;;;2.10;99.90;;;;;;4984541;28;20053;-84